Time,TemperatureF,DewpointF,PressureIn,WindDirection,WindDirectionDegrees,WindSpeedMPH,WindSpeedGustMPH,Humidity,HourlyPrecipIn,Conditions,Clouds,dailyrainin,SoftwareType,DateUTC
2013-01-11 00:00:00,9.2,3.5,30.29,North,0,0.0,1.0,77,0.00,,,0.00,VWS V14.01,2013-01-11 07:00:00,
2013-01-11 00:03:00,9.2,3.5,30.29,North,1,0.0,0.0,77,0.00,,,0.00,VWS V14.01,2013-01-11 07:03:00,
2013-01-11 00:08:00,9.2,3.5,30.29,North,1,0.0,0.0,77,0.00,,,0.00,VWS V14.01,2013-01-11 07:08:00,
2013-01-11 00:13:00,9.2,3.5,30.29,ENE,74,0.0,0.0,77,0.00,,,0.00,VWS V14.01,2013-01-11 07:13:00,
2013-01-11 00:18:00,9.0,3.0,30.29,ENE,74,0.0,0.0,76,0.00,,,0.00,VWS V14.01,2013-01-11 07:18:00,
2013-01-11 00:23:00,8.8,3.1,30.29,ENE,74,0.0,0.0,77,0.00,,,0.00,VWS V14.01,2013-01-11 07:23:00,
2013-01-11 00:28:00,8.8,3.1,30.29,ENE,74,0.0,0.0,77,0.00,,,0.00,VWS V14.01,2013-01-11 07:28:00,
2013-01-11 00:30:00,8.8,3.1,30.29,ENE,74,0.0,0.0,77,0.00,,,0.00,VWS V14.01,2013-01-11 07:30:00,
2013-01-11 00:33:00,8.6,2.6,30.29,ENE,74,0.0,0.0,76,0.00,,,0.00,VWS V14.01,2013-01-11 07:33:00,
2013-01-11 00:38:00,8.3,2.0,30.29,ENE,74,0.0,0.0,75,0.00,,,0.00,VWS V14.01,2013-01-11 07:38:00,
2013-01-11 00:43:00,7.7,1.4,30.29,ENE,74,0.0,0.0,75,0.00,,,0.00,VWS V14.01,2013-01-11 07:43:00,
2013-01-11 00:48:00,7.4,1.1,30.29,ENE,74,0.0,0.0,75,0.00,,,0.00,VWS V14.01,2013-01-11 07:48:00,
2013-01-11 00:53:00,7.0,0.8,30.29,ENE,74,0.0,0.0,75,0.00,,,0.00,VWS V14.01,2013-01-11 07:53:00,
2013-01-11 00:58:00,6.5,0.3,30.29,ENE,74,0.0,0.0,75,0.00,,,0.00,VWS V14.01,2013-01-11 07:58:00,
2013-01-11 01:00:00,6.3,-0.2,30.30,ENE,74,0.0,0.0,74,0.00,,,0.00,VWS V14.01,2013-01-11 08:00:00,
2013-01-11 01:03:00,6.1,0.2,30.30,ENE,74,0.0,0.0,76,0.00,,,0.00,VWS V14.01,2013-01-11 08:03:00,
2013-01-11 01:08:00,5.8,-0.1,30.30,ENE,74,0.0,0.0,76,0.00,,,0.00,VWS V14.01,2013-01-11 08:08:00,
2013-01-11 01:13:00,5.4,-0.8,30.30,ENE,74,0.0,0.0,75,0.00,,,0.00,VWS V14.01,2013-01-11 08:13:00,
2013-01-11 01:18:00,4.8,-1.6,30.32,ENE,74,0.0,0.0,74,0.00,,,0.00,VWS V14.01,2013-01-11 08:18:00,
2013-01-11 01:23:00,4.8,-0.8,30.32,ENE,74,0.0,0.0,77,0.00,,,0.00,VWS V14.01,2013-01-11 08:23:00,
2013-01-11 01:28:00,4.5,-1.4,30.32,ENE,74,0.0,0.0,76,0.00,,,0.00,VWS V14.01,2013-01-11 08:28:00,
2013-01-11 01:30:00,4.3,-1.9,30.32,ENE,74,0.0,0.0,75,0.00,,,0.00,VWS V14.01,2013-01-11 08:30:00,
2013-01-11 01:33:00,3.9,-2.2,30.32,ENE,74,0.0,0.0,75,0.00,,,0.00,VWS V14.01,2013-01-11 08:33:00,
2013-01-11 01:38:00,3.5,-2.1,30.32,ENE,74,0.0,0.0,77,0.00,,,0.00,VWS V14.01,2013-01-11 08:38:00,
2013-01-11 01:43:00,3.5,-1.8,30.32,ENE,74,0.0,0.0,78,0.00,,,0.00,VWS V14.01,2013-01-11 08:43:00,
2013-01-11 01:48:00,3.4,-2.2,30.32,ENE,74,0.0,0.0,77,0.00,,,0.00,VWS V14.01,2013-01-11 08:48:00,
2013-01-11 01:53:00,3.4,-1.9,30.32,ENE,74,0.0,0.0,78,0.00,,,0.00,VWS V14.01,2013-01-11 08:53:00,
2013-01-11 01:58:00,3.7,-1.3,30.32,ENE,74,0.0,0.0,79,0.00,,,0.00,VWS V14.01,2013-01-11 08:58:00,
2013-01-11 02:00:00,3.7,-1.3,30.32,ENE,74,0.0,0.0,79,0.00,,,0.00,VWS V14.01,2013-01-11 09:00:00,
2013-01-11 02:03:00,3.9,-0.9,30.32,ENE,74,0.0,0.0,80,0.00,,,0.00,VWS V14.01,2013-01-11 09:03:00,
2013-01-11 02:08:00,4.1,-0.7,30.32,ENE,74,0.0,0.0,80,0.00,,,0.00,VWS V14.01,2013-01-11 09:08:00,
2013-01-11 02:13:00,3.4,-2.2,30.32,ENE,74,0.0,0.0,77,0.00,,,0.00,VWS V14.01,2013-01-11 09:13:00,
2013-01-11 02:18:00,3.2,-2.1,30.33,ENE,74,0.0,0.0,78,0.00,,,0.00,VWS V14.01,2013-01-11 09:18:00,
2013-01-11 02:23:00,3.0,-2.3,30.33,ENE,74,0.0,0.0,78,0.00,,,0.00,VWS V14.01,2013-01-11 09:23:00,
2013-01-11 02:28:00,3.2,-1.8,30.33,ENE,74,0.0,0.0,79,0.00,,,0.00,VWS V14.01,2013-01-11 09:28:00,
2013-01-11 02:30:00,3.4,-1.4,30.33,ENE,74,0.0,0.0,80,0.00,,,0.00,VWS V14.01,2013-01-11 09:30:00,
2013-01-11 02:33:00,3.4,-1.6,30.33,ENE,74,0.0,0.0,79,0.00,,,0.00,VWS V14.01,2013-01-11 09:33:00,
2013-01-11 02:38:00,3.2,-2.1,30.33,ENE,74,0.0,0.0,78,0.00,,,0.00,VWS V14.01,2013-01-11 09:38:00,
2013-01-11 02:43:00,2.8,-2.5,30.33,ENE,74,0.0,0.0,78,0.00,,,0.00,VWS V14.01,2013-01-11 09:43:00,
2013-01-11 02:48:00,3.0,-2.0,30.34,ENE,74,0.0,0.0,79,0.00,,,0.00,VWS V14.01,2013-01-11 09:48:00,
2013-01-11 02:53:00,3.2,-1.8,30.34,ENE,74,0.0,0.0,79,0.00,,,0.00,VWS V14.01,2013-01-11 09:53:00,
2013-01-11 02:58:00,2.8,-2.5,30.34,ENE,74,0.0,0.0,78,0.00,,,0.00,VWS V14.01,2013-01-11 09:58:00,
2013-01-11 03:00:00,2.6,-2.7,30.35,ENE,74,0.0,0.0,78,0.00,,,0.00,VWS V14.01,2013-01-11 10:00:00,
2013-01-11 03:03:00,2.4,-2.9,30.34,ENE,74,0.0,0.0,78,0.00,,,0.00,VWS V14.01,2013-01-11 10:03:00,
2013-01-11 03:08:00,2.0,-3.5,30.34,ENE,74,0.0,0.0,77,0.00,,,0.00,VWS V14.01,2013-01-11 10:08:00,
2013-01-11 03:13:00,1.7,-4.1,30.34,ENE,74,0.0,0.0,76,0.00,,,0.00,VWS V14.01,2013-01-11 10:13:00,
2013-01-11 03:18:00,1.3,-4.5,30.35,ENE,74,0.0,0.0,76,0.00,,,0.00,VWS V14.01,2013-01-11 10:18:00,
2013-01-11 03:23:00,1.1,-4.4,30.35,ENE,74,0.0,0.0,77,0.00,,,0.00,VWS V14.01,2013-01-11 10:23:00,
2013-01-11 03:28:00,1.5,-3.8,30.35,ENE,74,0.0,0.0,78,0.00,,,0.00,VWS V14.01,2013-01-11 10:28:00,
2013-01-11 03:30:00,1.5,-3.8,30.36,ENE,74,0.0,0.0,78,0.00,,BKN080,0.00,VWS V14.01,2013-01-11 10:30:00,
2013-01-11 03:32:00,1.3,-4.2,30.36,ENE,74,0.0,0.0,77,0.00,,,0.00,VWS V14.01,2013-01-11 10:32:00,
2013-01-11 03:38:00,0.7,-5.1,30.36,ENE,74,0.0,0.0,76,0.00,,,0.00,VWS V14.01,2013-01-11 10:38:00,
2013-01-11 03:43:00,0.5,-4.7,30.36,ENE,74,0.0,0.0,78,0.00,,,0.00,VWS V14.01,2013-01-11 10:43:00,
2013-01-11 03:48:00,0.7,-4.5,30.37,ENE,74,0.0,0.0,78,0.00,,,0.00,VWS V14.01,2013-01-11 10:48:00,
2013-01-11 03:53:00,0.7,-4.5,30.37,ENE,74,0.0,0.0,78,0.00,,,0.00,VWS V14.01,2013-01-11 10:53:00,
2013-01-11 03:58:00,0.5,-5.0,30.37,ENE,74,0.0,0.0,77,0.00,,,0.00,VWS V14.01,2013-01-11 10:58:00,
2013-01-11 04:00:00,0.5,-5.0,30.36,ENE,74,0.0,0.0,77,0.00,,,0.00,VWS V14.01,2013-01-11 11:00:00,
2013-01-11 04:03:00,0.3,-5.2,30.37,ENE,74,0.0,0.0,77,0.00,,,0.00,VWS V14.01,2013-01-11 11:03:00,
2013-01-11 04:07:00,0.1,-5.7,30.37,ENE,74,0.0,0.0,76,0.00,,,0.00,VWS V14.01,2013-01-11 11:07:00,
2013-01-11 04:13:00,0.1,-5.5,30.37,ENE,74,0.0,0.0,77,0.00,,,0.00,VWS V14.01,2013-01-11 11:13:00,
2013-01-11 04:18:00,0.1,-5.4,30.38,ENE,74,0.0,0.0,77,0.00,,,0.00,VWS V14.01,2013-01-11 11:18:00,
2013-01-11 04:22:00,-0.2,-6.2,30.38,ENE,74,0.0,0.0,75,0.00,,,0.00,VWS V14.01,2013-01-11 11:22:00,
2013-01-11 04:27:00,-0.4,-5.9,30.38,ENE,74,0.0,0.0,77,0.00,,,0.00,VWS V14.01,2013-01-11 11:27:00,
2013-01-11 04:30:00,-0.2,-5.7,30.38,ENE,74,0.0,0.0,77,0.00,,BKN080,0.00,VWS V14.01,2013-01-11 11:30:00,
2013-01-11 04:33:00,-0.2,-5.2,30.38,ENE,74,0.0,0.0,78,0.00,,,0.00,VWS V14.01,2013-01-11 11:33:00,
2013-01-11 04:38:00,-0.2,-5.5,30.38,ENE,74,0.0,0.0,77,0.00,,,0.00,VWS V14.01,2013-01-11 11:38:00,
2013-01-11 04:43:00,-0.2,-5.7,30.38,ENE,74,0.0,0.0,77,0.00,,,0.00,VWS V14.01,2013-01-11 11:43:00,
2013-01-11 04:48:00,-0.2,-5.7,30.38,ENE,74,0.0,0.0,77,0.00,,,0.00,VWS V14.01,2013-01-11 11:48:00,
2013-01-11 04:53:00,-0.2,-5.7,30.38,ENE,74,0.0,0.0,77,0.00,,,0.00,VWS V14.01,2013-01-11 11:53:00,
2013-01-11 04:57:00,-0.4,-6.1,30.38,ENE,74,0.0,0.0,76,0.00,,,0.00,VWS V14.01,2013-01-11 11:57:00,
2013-01-11 05:00:00,-0.4,-6.1,30.38,ENE,74,0.0,0.0,76,0.00,,,0.00,VWS V14.01,2013-01-11 12:00:00,
2013-01-11 05:02:00,-0.6,-6.6,30.38,ENE,74,0.0,0.0,75,0.00,,,0.00,VWS V14.01,2013-01-11 12:02:00,
2013-01-11 05:07:00,-1.2,-6.9,30.38,ENE,74,0.0,0.0,76,0.00,,,0.00,VWS V14.01,2013-01-11 12:07:00,
2013-01-11 05:12:00,-1.2,-6.4,30.38,ENE,74,0.0,0.0,78,0.00,,,0.00,VWS V14.01,2013-01-11 12:12:00,
2013-01-11 05:17:00,-1.0,-6.5,30.39,ENE,74,0.0,0.0,77,0.00,,,0.00,VWS V14.01,2013-01-11 12:17:00,
2013-01-11 05:22:00,-1.4,-7.4,30.39,ENE,74,0.0,0.0,75,0.00,,,0.00,VWS V14.01,2013-01-11 12:22:00,
2013-01-11 05:27:00,-1.8,-7.8,30.39,ENE,74,0.0,0.0,75,0.00,,,0.00,VWS V14.01,2013-01-11 12:27:00,
2013-01-11 05:30:00,-1.8,-7.5,30.41,ENE,74,0.0,0.0,76,0.00,,,0.00,VWS V14.01,2013-01-11 12:30:00,
2013-01-11 05:32:00,-1.8,-7.2,30.41,ENE,74,0.0,0.0,77,0.00,,,0.00,VWS V14.01,2013-01-11 12:32:00,
2013-01-11 05:37:00,-1.8,-7.2,30.41,ENE,74,0.0,0.0,77,0.00,,,0.00,VWS V14.01,2013-01-11 12:37:00,
2013-01-11 05:42:00,-1.2,-6.4,30.41,ENE,74,0.0,0.0,78,0.00,,,0.00,VWS V14.01,2013-01-11 12:42:00,
2013-01-11 05:47:00,-0.4,-5.1,30.39,ENE,74,0.0,0.0,80,0.00,,,0.00,VWS V14.01,2013-01-11 12:47:00,
2013-01-11 05:52:00,-0.2,-4.9,30.39,ENE,74,0.0,0.0,79,0.00,,,0.00,VWS V14.01,2013-01-11 12:52:00,
2013-01-11 05:57:00,-0.2,-5.4,30.39,ENE,74,0.0,0.0,78,0.00,,,0.00,VWS V14.01,2013-01-11 12:57:00,
2013-01-11 06:00:00,-0.4,-5.6,30.39,ENE,74,0.0,0.0,78,0.00,,,0.00,VWS V14.01,2013-01-11 13:00:00,
2013-01-11 06:02:00,-0.2,-5.4,30.39,ENE,74,0.0,0.0,78,0.00,,,0.00,VWS V14.01,2013-01-11 13:02:00,
2013-01-11 06:07:00,-0.4,-5.9,30.39,ENE,74,0.0,0.0,77,0.00,,,0.00,VWS V14.01,2013-01-11 13:07:00,
2013-01-11 06:12:00,-0.8,-6.3,30.39,ENE,74,0.0,0.0,77,0.00,,,0.00,VWS V14.01,2013-01-11 13:12:00,
2013-01-11 06:17:00,-0.6,-5.8,30.41,ENE,74,0.0,0.0,78,0.00,,,0.00,VWS V14.01,2013-01-11 13:17:00,
2013-01-11 06:22:00,-0.4,-5.3,30.41,ENE,74,0.0,0.0,79,0.00,,,0.00,VWS V14.01,2013-01-11 13:22:00,
2013-01-11 06:27:00,-0.4,-5.6,30.41,ENE,74,0.0,0.0,78,0.00,,,0.00,VWS V14.01,2013-01-11 13:27:00,
2013-01-11 06:30:00,-0.4,-5.6,30.40,ENE,74,0.0,0.0,78,0.00,,,0.00,VWS V14.01,2013-01-11 13:30:00,
2013-01-11 06:32:00,-0.2,-5.4,30.40,ENE,74,0.0,0.0,78,0.00,,,0.00,VWS V14.01,2013-01-11 13:32:00,
2013-01-11 06:37:00,-0.2,-5.2,30.40,ENE,74,0.0,0.0,78,0.00,,,0.00,VWS V14.01,2013-01-11 13:37:00,
2013-01-11 06:42:00,-0.2,-5.4,30.40,ENE,74,0.0,0.0,78,0.00,,,0.00,VWS V14.01,2013-01-11 13:42:00,
2013-01-11 06:47:00,-0.6,-6.6,30.41,ENE,74,0.0,0.0,75,0.00,,,0.00,VWS V14.01,2013-01-11 13:47:00,
2013-01-11 06:52:00,-1.2,-7.2,30.41,ENE,74,0.0,0.0,75,0.00,,,0.00,VWS V14.01,2013-01-11 13:52:00,
2013-01-11 06:57:00,-1.6,-7.6,30.41,ENE,74,0.0,0.0,75,0.00,,,0.00,VWS V14.01,2013-01-11 13:57:00,
2013-01-11 07:00:00,-1.6,-7.6,30.42,ENE,74,0.0,0.0,75,0.00,,,0.00,VWS V14.01,2013-01-11 14:00:00,
2013-01-11 07:02:00,-1.8,-7.8,30.42,ENE,74,0.0,0.0,75,0.00,,,0.00,VWS V14.01,2013-01-11 14:02:00,
2013-01-11 07:07:00,-2.2,-8.2,30.42,ENE,74,0.0,0.0,75,0.00,,,0.00,VWS V14.01,2013-01-11 14:07:00,
2013-01-11 07:12:00,-2.6,-8.8,30.42,ENE,74,0.0,0.0,74,0.00,,,0.00,VWS V14.01,2013-01-11 14:12:00,
2013-01-11 07:17:00,-2.6,-8.6,30.44,ENE,74,0.0,0.0,75,0.00,,,0.00,VWS V14.01,2013-01-11 14:17:00,
2013-01-11 07:22:00,-2.8,-8.7,30.44,ENE,74,0.0,0.0,75,0.00,,,0.00,VWS V14.01,2013-01-11 14:22:00,
2013-01-11 07:27:00,-3.5,-10.0,30.44,ENE,74,0.0,0.0,73,0.00,,,0.00,VWS V14.01,2013-01-11 14:27:00,
2013-01-11 07:30:00,-3.5,-9.7,30.45,ENE,74,0.0,0.0,74,0.00,,,0.00,VWS V14.01,2013-01-11 14:30:00,
2013-01-11 07:32:00,-3.7,-9.9,30.45,ENE,74,0.0,0.0,74,0.00,,,0.00,VWS V14.01,2013-01-11 14:32:00,
2013-01-11 07:37:00,-3.7,-9.6,30.45,ENE,74,0.0,0.0,75,0.00,,,0.00,VWS V14.01,2013-01-11 14:37:00,
2013-01-11 07:42:00,-3.9,-10.1,30.45,ENE,74,0.0,0.0,74,0.00,,,0.00,VWS V14.01,2013-01-11 14:42:00,
2013-01-11 07:47:00,-4.1,-10.0,30.45,ENE,74,0.0,0.0,75,0.00,,,0.00,VWS V14.01,2013-01-11 14:47:00,
2013-01-11 07:52:00,-3.9,-9.5,30.45,ENE,74,0.0,0.0,76,0.00,,,0.00,VWS V14.01,2013-01-11 14:52:00,
2013-01-11 07:57:00,-4.1,-10.3,30.45,ENE,74,0.0,0.0,74,0.00,,,0.00,VWS V14.01,2013-01-11 14:57:00,
2013-01-11 08:00:00,-4.3,-10.5,30.45,ENE,74,0.0,0.0,74,0.00,,,0.00,VWS V14.01,2013-01-11 15:00:00,
2013-01-11 08:02:00,-4.8,-11.0,30.45,ENE,74,0.0,0.0,74,0.00,,,0.00,VWS V14.01,2013-01-11 15:02:00,
2013-01-11 08:07:00,-5.2,-11.6,30.45,ENE,74,0.0,0.0,73,0.00,,,0.00,VWS V14.01,2013-01-11 15:07:00,
2013-01-11 08:12:00,-5.4,-11.8,30.45,ENE,74,0.0,0.0,73,0.00,,,0.00,VWS V14.01,2013-01-11 15:12:00,
2013-01-11 08:17:00,-5.4,-11.3,30.48,ENE,74,0.0,0.0,75,0.00,,,0.00,VWS V14.01,2013-01-11 15:17:00,
2013-01-11 08:22:00,-5.0,-10.6,30.48,ENE,74,0.0,0.0,76,0.00,,,0.00,VWS V14.01,2013-01-11 15:22:00,
2013-01-11 08:27:00,-5.2,-11.3,30.48,ENE,74,0.0,0.0,74,0.00,,,0.00,VWS V14.01,2013-01-11 15:27:00,
2013-01-11 08:30:00,-5.2,-11.3,30.47,ENE,74,0.0,0.0,74,0.00,,,0.00,VWS V14.01,2013-01-11 15:30:00,
2013-01-11 08:32:00,-5.2,-11.1,30.47,ENE,74,0.0,0.0,75,0.00,,,0.00,VWS V14.01,2013-01-11 15:32:00,
2013-01-11 08:37:00,-5.0,-10.6,30.47,ENE,74,0.0,0.0,76,0.00,,,0.00,VWS V14.01,2013-01-11 15:37:00,
2013-01-11 08:42:00,-4.8,-10.4,30.47,ENE,74,0.0,0.0,76,0.00,,,0.00,VWS V14.01,2013-01-11 15:42:00,
2013-01-11 08:47:00,-4.8,-10.7,30.47,ENE,74,0.0,0.0,75,0.00,,,0.00,VWS V14.01,2013-01-11 15:47:00,
2013-01-11 08:52:00,-4.8,-10.7,30.47,ENE,74,0.0,0.0,75,0.00,,,0.00,VWS V14.01,2013-01-11 15:52:00,
2013-01-11 08:57:00,-5.0,-11.1,30.47,ENE,74,0.0,0.0,74,0.00,,,0.00,VWS V14.01,2013-01-11 15:57:00,
2013-01-11 09:00:00,-5.2,-11.3,30.47,ENE,74,0.0,0.0,74,0.00,,,0.00,VWS V14.01,2013-01-11 16:00:00,
2013-01-11 09:02:00,-5.4,-11.5,30.47,ENE,74,0.0,0.0,74,0.00,,,0.00,VWS V14.01,2013-01-11 16:02:00,
2013-01-11 09:07:00,-5.6,-11.7,30.47,ENE,74,0.0,0.0,74,0.00,,,0.00,VWS V14.01,2013-01-11 16:07:00,
2013-01-11 09:12:00,-5.9,-11.8,30.47,ENE,74,0.0,0.0,75,0.00,,,0.00,VWS V14.01,2013-01-11 16:12:00,
2013-01-11 09:17:00,-5.9,-12.0,30.49,ENE,74,0.0,0.0,74,0.00,,,0.00,VWS V14.01,2013-01-11 16:17:00,
2013-01-11 09:22:00,-5.9,-12.0,30.49,ENE,74,0.0,0.0,74,0.00,,,0.00,VWS V14.01,2013-01-11 16:22:00,
2013-01-11 09:27:00,-6.3,-12.7,30.49,ENE,74,0.0,0.0,73,0.00,,,0.00,VWS V14.01,2013-01-11 16:27:00,
2013-01-11 09:30:00,-6.3,-12.7,30.49,ENE,74,0.0,0.0,73,0.00,,,0.00,VWS V14.01,2013-01-11 16:30:00,
2013-01-11 09:32:00,-6.3,-12.7,30.49,ENE,74,0.0,0.0,73,0.00,,,0.00,VWS V14.01,2013-01-11 16:32:00,
2013-01-11 09:37:00,-6.8,-13.2,30.49,ENE,74,0.0,0.0,73,0.00,,,0.00,VWS V14.01,2013-01-11 16:37:00,
2013-01-11 09:42:00,-6.1,-11.4,30.49,ENE,74,0.0,0.0,77,0.00,,,0.00,VWS V14.01,2013-01-11 16:42:00,
2013-01-11 09:47:00,-5.4,-10.7,30.49,ENE,74,0.0,0.0,77,0.00,,,0.00,VWS V14.01,2013-01-11 16:47:00,
2013-01-11 09:52:00,-5.0,-10.6,30.49,ENE,74,0.0,0.0,76,0.00,,,0.00,VWS V14.01,2013-01-11 16:52:00,
2013-01-11 09:57:00,-5.0,-10.9,30.49,ENE,74,0.0,0.0,75,0.00,,,0.00,VWS V14.01,2013-01-11 16:57:00,
2013-01-11 10:00:00,-5.2,-11.1,30.48,ENE,74,0.0,0.0,75,0.00,,,0.00,VWS V14.01,2013-01-11 17:00:00,
2013-01-11 10:02:00,-5.2,-11.3,30.48,ENE,74,0.0,0.0,74,0.00,,,0.00,VWS V14.01,2013-01-11 17:02:00,
2013-01-11 10:07:00,-5.4,-11.5,30.48,ENE,74,0.0,0.0,74,0.00,,,0.00,VWS V14.01,2013-01-11 17:07:00,
2013-01-11 10:12:00,-5.4,-11.5,30.48,ENE,74,0.0,0.0,74,0.00,,,0.00,VWS V14.01,2013-01-11 17:12:00,
2013-01-11 10:17:00,-5.2,-11.1,30.50,ENE,74,0.0,0.0,75,0.00,,,0.00,VWS V14.01,2013-01-11 17:17:00,
2013-01-11 10:22:00,-4.8,-10.7,30.50,ENE,74,0.0,0.0,75,0.00,,,0.00,VWS V14.01,2013-01-11 17:22:00,
2013-01-11 10:27:00,-5.0,-11.1,30.50,ENE,74,0.0,0.0,74,0.00,,,0.00,VWS V14.01,2013-01-11 17:27:00,
2013-01-11 10:30:00,-5.0,-11.1,30.50,ENE,74,0.0,0.0,74,0.00,,,0.00,VWS V14.01,2013-01-11 17:30:00,
2013-01-11 10:32:00,-5.0,-11.1,30.50,ENE,74,0.0,0.0,74,0.00,,,0.00,VWS V14.01,2013-01-11 17:32:00,
2013-01-11 10:37:00,-4.6,-10.5,30.50,ENE,74,0.0,0.0,75,0.00,,,0.00,VWS V14.01,2013-01-11 17:37:00,
2013-01-11 10:42:00,-4.3,-10.2,30.50,ENE,74,0.0,0.0,75,0.00,,,0.00,VWS V14.01,2013-01-11 17:42:00,
2013-01-11 10:47:00,-3.7,-9.6,30.48,ENE,74,0.0,0.0,75,0.00,,,0.00,VWS V14.01,2013-01-11 17:47:00,
2013-01-11 10:52:00,-3.1,-8.8,30.48,ENE,74,0.0,0.0,76,0.00,,,0.00,VWS V14.01,2013-01-11 17:52:00,
2013-01-11 10:57:00,-2.0,-7.4,30.48,ENE,74,0.0,0.0,77,0.00,,,0.00,VWS V14.01,2013-01-11 17:57:00,
2013-01-11 11:00:00,-1.6,-7.0,30.47,ENE,74,0.0,0.0,77,0.00,,,0.00,VWS V14.01,2013-01-11 18:00:00,
2013-01-11 11:02:00,-0.6,-5.8,30.47,ENE,74,0.0,0.0,78,0.00,,,0.00,VWS V14.01,2013-01-11 18:02:00,
2013-01-11 11:07:00,0.3,-5.7,30.47,ENE,74,0.0,0.0,75,0.00,,,0.00,VWS V14.01,2013-01-11 18:07:00,
2013-01-11 11:12:00,1.1,-5.2,30.47,ENE,74,0.0,0.0,74,0.00,,,0.00,VWS V14.01,2013-01-11 18:12:00,
2013-01-11 11:17:00,1.1,-5.2,30.45,ENE,74,0.0,0.0,74,0.00,,,0.00,VWS V14.01,2013-01-11 18:17:00,
2013-01-11 11:22:00,1.1,-5.2,30.45,ENE,74,0.0,0.0,74,0.00,,,0.00,VWS V14.01,2013-01-11 18:22:00,
2013-01-11 11:27:00,1.3,-5.0,30.45,NW,304,0.0,0.0,74,0.00,,,0.00,VWS V14.01,2013-01-11 18:27:00,
2013-01-11 11:30:00,1.5,-4.8,30.45,NW,304,0.0,0.0,74,0.00,,,0.00,VWS V14.01,2013-01-11 18:30:00,
2013-01-11 11:32:00,1.7,-4.7,30.45,WNW,302,0.0,0.0,74,0.00,,,0.00,VWS V14.01,2013-01-11 18:32:00,
2013-01-11 11:37:00,2.4,-4.0,30.45,WNW,302,0.0,0.0,74,0.00,,,0.00,VWS V14.01,2013-01-11 18:37:00,
2013-01-11 11:42:00,2.8,-3.9,30.45,WNW,297,0.0,0.0,73,0.00,,,0.00,VWS V14.01,2013-01-11 18:42:00,
2013-01-11 11:47:00,3.2,-3.8,30.43,WNW,297,0.0,0.0,72,0.00,,,0.00,VWS V14.01,2013-01-11 18:47:00,
2013-01-11 11:52:00,3.9,-2.8,30.43,WNW,297,0.0,0.0,73,0.00,,,0.00,VWS V14.01,2013-01-11 18:52:00,
2013-01-11 11:57:00,4.8,-2.8,30.43,WNW,297,0.0,0.0,70,0.00,,,0.00,VWS V14.01,2013-01-11 18:57:00,
2013-01-11 12:00:00,4.8,-3.1,30.41,WNW,297,0.0,0.0,69,0.00,,,0.00,VWS V14.01,2013-01-11 19:00:00,
2013-01-11 12:02:00,4.8,-3.1,30.41,WNW,297,0.0,0.0,69,0.00,,,0.00,VWS V14.01,2013-01-11 19:02:00,
2013-01-11 12:07:00,4.7,-3.5,30.41,WNW,297,0.0,0.0,68,0.00,,,0.00,VWS V14.01,2013-01-11 19:07:00,
2013-01-11 12:12:00,4.7,-3.5,30.41,WNW,297,0.0,0.0,68,0.00,,,0.00,VWS V14.01,2013-01-11 19:12:00,
2013-01-11 12:17:00,4.7,-3.5,30.43,East,91,0.0,0.0,68,0.00,,,0.00,VWS V14.01,2013-01-11 19:17:00,
2013-01-11 12:22:00,4.5,-3.7,30.43,East,91,0.0,0.0,68,0.00,,,0.00,VWS V14.01,2013-01-11 19:22:00,
2013-01-11 12:27:00,4.3,-3.9,30.43,East,91,0.0,0.0,68,0.00,,,0.00,VWS V14.01,2013-01-11 19:27:00,
2013-01-11 12:30:00,3.9,-4.6,30.42,East,91,0.0,0.0,67,0.00,,,0.00,VWS V14.01,2013-01-11 19:30:00,
2013-01-11 12:32:00,3.5,-4.7,30.42,East,91,0.0,0.0,68,0.00,,,0.00,VWS V14.01,2013-01-11 19:32:00,
2013-01-11 12:37:00,3.4,-4.2,30.42,East,91,0.0,0.0,70,0.00,,,0.00,VWS V14.01,2013-01-11 19:37:00,
2013-01-11 12:42:00,3.0,-4.8,30.42,East,91,0.0,0.0,69,0.00,,,0.00,VWS V14.01,2013-01-11 19:42:00,
2013-01-11 12:47:00,2.4,-5.1,30.43,East,91,0.0,0.0,70,0.00,,,0.00,VWS V14.01,2013-01-11 19:47:00,
2013-01-11 12:52:00,2.0,-5.2,30.43,East,91,0.0,0.0,71,0.00,,,0.00,VWS V14.01,2013-01-11 19:52:00,
2013-01-11 12:57:00,1.8,-5.4,30.43,East,91,0.0,0.0,71,0.00,,,0.00,VWS V14.01,2013-01-11 19:57:00,
2013-01-11 13:00:00,1.8,-5.1,30.41,East,91,0.0,0.0,72,0.00,,,0.00,VWS V14.01,2013-01-11 20:00:00,
2013-01-11 13:02:00,1.8,-4.6,30.41,East,91,0.0,0.0,74,0.00,,,0.00,VWS V14.01,2013-01-11 20:02:00,
2013-01-11 13:07:00,2.2,-4.4,30.41,East,91,0.0,0.0,73,0.00,,,0.00,VWS V14.01,2013-01-11 20:07:00,
2013-01-11 13:12:00,2.4,-4.3,30.41,East,91,0.0,0.0,73,0.00,,,0.00,VWS V14.01,2013-01-11 20:12:00,
2013-01-11 13:17:00,2.2,-4.4,30.42,East,91,0.0,0.0,73,0.00,,,0.00,VWS V14.01,2013-01-11 20:17:00,
2013-01-11 13:22:00,2.0,-4.7,30.42,East,91,0.0,0.0,73,0.00,,,0.00,VWS V14.01,2013-01-11 20:22:00,
2013-01-11 13:27:00,1.8,-4.8,30.42,East,91,0.0,0.0,73,0.00,,,0.00,VWS V14.01,2013-01-11 20:27:00,
2013-01-11 13:30:00,1.8,-4.8,30.42,East,91,0.0,0.0,73,0.00,,,0.00,VWS V14.01,2013-01-11 20:30:00,
2013-01-11 13:32:00,1.8,-4.8,30.42,East,91,0.0,0.0,73,0.00,,,0.00,VWS V14.01,2013-01-11 20:32:00,
2013-01-11 13:37:00,2.0,-4.4,30.42,East,91,0.0,0.0,74,0.00,,,0.00,VWS V14.01,2013-01-11 20:37:00,
2013-01-11 13:42:00,2.2,-4.2,30.42,East,91,0.0,0.0,74,0.00,,,0.00,VWS V14.01,2013-01-11 20:42:00,
2013-01-11 13:47:00,2.2,-4.2,30.41,East,91,0.0,0.0,74,0.00,,,0.00,VWS V14.01,2013-01-11 20:47:00,
2013-01-11 13:52:00,2.2,-3.9,30.41,East,91,0.0,0.0,75,0.00,,,0.00,VWS V14.01,2013-01-11 20:52:00,
2013-01-11 13:57:00,2.4,-3.7,30.41,East,91,0.0,0.0,75,0.00,,,0.00,VWS V14.01,2013-01-11 20:57:00,
2013-01-11 14:00:00,2.4,-3.7,30.42,East,91,0.0,0.0,75,0.00,,,0.00,VWS V14.01,2013-01-11 21:00:00,
2013-01-11 14:02:00,2.4,-3.7,30.42,East,91,0.0,0.0,75,0.00,,,0.00,VWS V14.01,2013-01-11 21:02:00,
2013-01-11 14:07:00,2.8,-2.5,30.42,NNW,330,0.0,1.0,78,0.00,,,0.00,VWS V14.01,2013-01-11 21:07:00,
2013-01-11 14:12:00,3.7,-1.6,30.42,NNW,330,0.0,1.0,78,0.00,,,0.00,VWS V14.01,2013-01-11 21:12:00,
2013-01-11 14:17:00,4.1,-1.8,30.41,NNW,330,0.0,1.0,76,0.00,,,0.00,VWS V14.01,2013-01-11 21:17:00,
2013-01-11 14:22:00,4.1,-2.0,30.41,NNW,330,0.0,1.0,75,0.00,,,0.00,VWS V14.01,2013-01-11 21:22:00,
2013-01-11 14:27:00,3.9,-2.5,30.41,NNW,330,0.0,1.0,74,0.00,,,0.00,VWS V14.01,2013-01-11 21:27:00,
2013-01-11 14:30:00,3.7,-2.7,30.41,NNW,330,0.0,1.0,74,0.00,,,0.00,VWS V14.01,2013-01-11 21:30:00,
2013-01-11 14:32:00,3.7,-2.4,30.41,NNW,330,0.0,0.0,75,0.00,,,0.00,VWS V14.01,2013-01-11 21:32:00,
2013-01-11 14:37:00,3.4,-3.0,30.41,NNW,330,0.0,0.0,74,0.00,,,0.00,VWS V14.01,2013-01-11 21:37:00,
2013-01-11 14:42:00,3.4,-2.5,30.41,NNW,332,0.0,0.0,76,0.00,,,0.00,VWS V14.01,2013-01-11 21:42:00,
2013-01-11 14:47:00,3.5,-2.3,30.41,NNW,335,0.0,0.0,76,0.00,,,0.00,VWS V14.01,2013-01-11 21:47:00,
2013-01-11 14:52:00,3.7,-1.9,30.41,NNW,335,0.0,0.0,77,0.00,,,0.00,VWS V14.01,2013-01-11 21:52:00,
2013-01-11 14:57:00,3.7,-2.2,30.41,NNW,335,0.0,0.0,76,0.00,,,0.00,VWS V14.01,2013-01-11 21:57:00,
2013-01-11 15:00:00,3.7,-2.2,30.41,NNW,339,0.0,0.0,76,0.00,,,0.00,VWS V14.01,2013-01-11 22:00:00,
2013-01-11 15:02:00,3.9,-1.7,30.41,NNW,339,0.0,0.0,77,0.00,,,0.00,VWS V14.01,2013-01-11 22:02:00,
2013-01-11 15:07:00,4.3,-1.0,30.41,NNW,339,0.0,0.0,78,0.00,,,0.00,VWS V14.01,2013-01-11 22:07:00,
2013-01-11 15:12:00,4.8,-0.5,30.41,NNW,339,0.0,0.0,78,0.00,,,0.00,VWS V14.01,2013-01-11 22:12:00,
2013-01-11 15:17:00,5.0,-0.6,30.41,NNW,339,0.0,0.0,77,0.00,,,0.00,VWS V14.01,2013-01-11 22:17:00,
2013-01-11 15:22:00,5.2,-0.4,30.41,North,0,0.0,0.0,77,0.00,,,0.00,VWS V14.01,2013-01-11 22:22:00,
2013-01-11 15:27:00,5.2,-0.7,30.41,North,0,0.0,0.0,76,0.00,,,0.00,VWS V14.01,2013-01-11 22:27:00,
2013-01-11 15:30:00,5.2,-0.4,30.40,North,0,0.0,0.0,77,0.00,,,0.00,VWS V14.01,2013-01-11 22:30:00,
2013-01-11 15:32:00,5.0,-0.9,30.40,North,0,0.0,0.0,76,0.00,,,0.00,VWS V14.01,2013-01-11 22:32:00,
2013-01-11 15:37:00,5.0,-0.6,30.40,North,0,0.0,0.0,77,0.00,,,0.00,VWS V14.01,2013-01-11 22:37:00,
2013-01-11 15:42:00,4.8,-0.8,30.40,North,0,0.0,0.0,77,0.00,,,0.00,VWS V14.01,2013-01-11 22:42:00,
2013-01-11 15:47:00,4.3,-1.9,30.40,North,0,0.0,0.0,75,0.00,,,0.00,VWS V14.01,2013-01-11 22:47:00,
2013-01-11 15:52:00,3.9,-2.0,30.40,North,0,0.0,0.0,76,0.00,,,0.00,VWS V14.01,2013-01-11 22:52:00,
2013-01-11 15:57:00,4.1,-1.5,30.40,North,0,0.0,0.0,77,0.00,,,0.00,VWS V14.01,2013-01-11 22:57:00,
2013-01-11 16:00:00,4.1,-1.2,30.41,North,0,0.0,0.0,78,0.00,,,0.00,VWS V14.01,2013-01-11 23:00:00,
2013-01-11 16:02:00,4.3,-1.0,30.41,North,0,0.0,0.0,78,0.00,,,0.00,VWS V14.01,2013-01-11 23:02:00,
2013-01-11 16:07:00,4.3,-1.3,30.41,North,0,0.0,0.0,77,0.00,,,0.00,VWS V14.01,2013-01-11 23:07:00,
2013-01-11 16:12:00,4.3,-1.3,30.41,North,0,0.0,0.0,77,0.00,,,0.00,VWS V14.01,2013-01-11 23:12:00,
2013-01-11 16:17:00,4.3,-1.0,30.40,North,8,0.0,0.0,78,0.00,,,0.00,VWS V14.01,2013-01-11 23:17:00,
2013-01-11 16:22:00,4.5,-1.1,30.40,NNE,23,0.0,0.0,77,0.00,,,0.00,VWS V14.01,2013-01-11 23:22:00,
2013-01-11 16:27:00,3.9,-2.0,30.40,NNE,23,0.0,0.0,76,0.00,,,0.00,VWS V14.01,2013-01-11 23:27:00,
2013-01-11 16:30:00,3.5,-2.6,30.40,NNE,23,0.0,0.0,75,0.00,,,0.00,VWS V14.01,2013-01-11 23:30:00,
2013-01-11 16:32:00,3.0,-3.4,30.40,NNE,23,0.0,0.0,74,0.00,,,0.00,VWS V14.01,2013-01-11 23:32:00,
2013-01-11 16:37:00,2.8,-2.8,30.40,NNE,23,0.0,0.0,77,0.00,,,0.00,VWS V14.01,2013-01-11 23:37:00,
2013-01-11 16:42:00,2.8,-2.8,30.40,NNE,23,0.0,0.0,77,0.00,,,0.00,VWS V14.01,2013-01-11 23:42:00,
2013-01-11 16:47:00,2.8,-2.5,30.41,NNE,23,0.0,0.0,78,0.00,,,0.00,VWS V14.01,2013-01-11 23:47:00,
2013-01-11 16:52:00,3.2,-1.8,30.41,NNE,31,0.0,0.0,79,0.00,,,0.00,VWS V14.01,2013-01-11 23:52:00,
2013-01-11 16:57:00,3.5,-1.3,30.41,NE,41,0.0,0.0,80,0.00,,,0.00,VWS V14.01,2013-01-11 23:57:00,
2013-01-11 17:00:00,4.1,-0.4,30.40,NNW,342,0.0,0.0,81,0.00,,,0.00,VWS V14.01,2013-01-12 00:00:00,
2013-01-11 17:02:00,4.7,0.2,30.40,NNW,342,0.0,0.0,81,0.00,,,0.00,VWS V14.01,2013-01-12 00:02:00,
2013-01-11 17:07:00,4.8,-0.3,30.40,North,0,0.0,0.0,79,0.00,,,0.00,VWS V14.01,2013-01-12 00:07:00,
2013-01-11 17:12:00,4.8,-0.5,30.40,North,0,0.0,0.0,78,0.00,,,0.00,VWS V14.01,2013-01-12 00:12:00,
2013-01-11 17:17:00,5.4,0.6,30.40,WNW,295,0.0,0.0,80,0.00,,,0.00,VWS V14.01,2013-01-12 00:17:00,
2013-01-11 17:22:00,6.0,0.6,30.40,East,80,0.0,1.0,78,0.00,,,0.00,VWS V14.01,2013-01-12 00:22:00,
2013-01-11 17:27:00,6.5,0.6,30.40,West,262,0.0,1.0,76,0.00,,,0.00,VWS V14.01,2013-01-12 00:27:00,
2013-01-11 17:30:00,6.5,0.0,30.39,West,262,0.0,1.0,74,0.00,,,0.00,VWS V14.01,2013-01-12 00:30:00,
2013-01-11 17:32:00,6.3,0.1,30.39,NNW,348,0.0,1.0,75,0.00,,,0.00,VWS V14.01,2013-01-12 00:32:00,
2013-01-11 17:37:00,6.3,0.1,30.39,WNW,300,0.0,1.0,75,0.00,,,0.00,VWS V14.01,2013-01-12 00:37:00,
2013-01-11 17:42:00,6.1,-0.7,30.39,ENE,58,0.0,1.0,73,0.00,,,0.00,VWS V14.01,2013-01-12 00:42:00,
2013-01-11 17:47:00,5.2,-2.1,30.39,ENE,58,0.0,1.0,71,0.00,,,0.00,VWS V14.01,2013-01-12 00:47:00,
2013-01-11 17:52:00,4.1,-3.5,30.39,ENE,58,0.0,1.0,70,0.00,,,0.00,VWS V14.01,2013-01-12 00:52:00,
2013-01-11 17:57:00,3.2,-3.5,30.39,NW,316,0.0,1.0,73,0.00,,,0.00,VWS V14.01,2013-01-12 00:57:00,
2013-01-11 18:00:00,3.0,-3.7,30.41,NW,317,0.0,1.0,73,0.00,,,0.00,VWS V14.01,2013-01-12 01:00:00,
2013-01-11 18:02:00,3.2,-2.1,30.41,NW,318,0.0,0.0,78,0.00,,,0.00,VWS V14.01,2013-01-12 01:02:00,
2013-01-11 18:07:00,5.0,-0.3,30.41,WNW,302,0.0,0.0,78,0.00,,,0.00,VWS V14.01,2013-01-12 01:07:00,
2013-01-11 18:12:00,6.1,-0.1,30.41,NW,305,0.0,0.0,75,0.00,,,0.00,VWS V14.01,2013-01-12 01:12:00,
2013-01-11 18:17:00,6.0,-0.5,30.40,NE,52,0.0,1.0,74,0.00,,,0.00,VWS V14.01,2013-01-12 01:17:00,
2013-01-11 18:22:00,5.2,-1.8,30.40,NE,52,0.0,1.0,72,0.00,,,0.00,VWS V14.01,2013-01-12 01:22:00,
2013-01-11 18:27:00,3.7,-3.6,30.40,NE,52,0.0,1.0,71,0.00,,,0.00,VWS V14.01,2013-01-12 01:27:00,
2013-01-11 18:30:00,3.2,-4.1,30.42,NE,52,0.0,1.0,71,0.00,,,0.00,VWS V14.01,2013-01-12 01:30:00,
2013-01-11 18:32:00,2.8,-4.2,30.42,NE,52,0.0,0.0,72,0.00,,,0.00,VWS V14.01,2013-01-12 01:32:00,
2013-01-11 18:37:00,2.2,-4.4,30.42,NE,52,0.0,0.0,73,0.00,,,0.00,VWS V14.01,2013-01-12 01:37:00,
2013-01-11 18:42:00,1.7,-4.7,30.42,NE,52,0.0,0.0,74,0.00,,,0.00,VWS V14.01,2013-01-12 01:42:00,
2013-01-11 18:47:00,1.1,-5.5,30.42,NE,52,0.0,0.0,73,0.00,,,0.00,VWS V14.01,2013-01-12 01:47:00,
2013-01-11 18:52:00,0.9,-5.2,30.42,NE,52,0.0,0.0,75,0.00,,,0.00,VWS V14.01,2013-01-12 01:52:00,
2013-01-11 18:57:00,0.9,-5.2,30.42,NE,52,0.0,0.0,75,0.00,,,0.00,VWS V14.01,2013-01-12 01:57:00,
2013-01-11 19:00:00,0.7,-5.3,30.42,NE,52,0.0,0.0,75,0.00,,,0.00,VWS V14.01,2013-01-12 02:00:00,
2013-01-11 19:02:00,0.5,-5.8,30.42,NE,52,0.0,0.0,74,0.00,,,0.00,VWS V14.01,2013-01-12 02:02:00,
2013-01-11 19:07:00,0.1,-6.3,30.42,NE,52,0.0,0.0,74,0.00,,,0.00,VWS V14.01,2013-01-12 02:07:00,
2013-01-11 19:12:00,-0.2,-6.2,30.42,NE,52,0.0,0.0,75,0.00,,,0.00,VWS V14.01,2013-01-12 02:12:00,
2013-01-11 19:17:00,-0.4,-6.4,30.45,NE,52,0.0,0.0,75,0.00,,,0.00,VWS V14.01,2013-01-12 02:17:00,
2013-01-11 19:22:00,-0.8,-6.8,30.45,NE,52,0.0,0.0,75,0.00,,,0.00,VWS V14.01,2013-01-12 02:22:00,
2013-01-11 19:27:00,-0.4,-5.6,30.45,NE,52,0.0,0.0,78,0.00,,,0.00,VWS V14.01,2013-01-12 02:27:00,
2013-01-11 19:30:00,-0.2,-5.4,30.45,NE,52,0.0,0.0,78,0.00,,,0.00,VWS V14.01,2013-01-12 02:30:00,
2013-01-11 19:32:00,-0.2,-5.2,30.45,NE,52,0.0,0.0,78,0.00,,,0.00,VWS V14.01,2013-01-12 02:32:00,
2013-01-11 19:37:00,-0.4,-5.9,30.45,NE,52,0.0,0.0,77,0.00,,,0.00,VWS V14.01,2013-01-12 02:37:00,
2013-01-11 19:42:00,-0.2,-5.4,30.45,NE,52,0.0,0.0,78,0.00,,,0.00,VWS V14.01,2013-01-12 02:42:00,
2013-01-11 19:47:00,-0.2,-5.4,30.45,NE,52,0.0,0.0,78,0.00,,,0.00,VWS V14.01,2013-01-12 02:47:00,
2013-01-11 19:52:00,-0.4,-5.6,30.45,NE,52,0.0,0.0,78,0.00,,,0.00,VWS V14.01,2013-01-12 02:52:00,
2013-01-11 19:57:00,-0.6,-6.1,30.45,NE,52,0.0,0.0,77,0.00,,,0.00,VWS V14.01,2013-01-12 02:57:00,
2013-01-11 20:00:00,-0.6,-6.1,30.45,NE,52,0.0,0.0,77,0.00,,,0.00,VWS V14.01,2013-01-12 03:00:00,
2013-01-11 20:02:00,-0.8,-6.0,30.45,NE,52,0.0,0.0,78,0.00,,,0.00,VWS V14.01,2013-01-12 03:02:00,
2013-01-11 20:07:00,-1.0,-6.5,30.45,NE,52,0.0,0.0,77,0.00,,,0.00,VWS V14.01,2013-01-12 03:07:00,
2013-01-11 20:12:00,-1.2,-6.7,30.45,NE,53,0.0,0.0,77,0.00,,,0.00,VWS V14.01,2013-01-12 03:12:00,
2013-01-11 20:17:00,-0.8,-5.7,30.45,NE,53,0.0,0.0,79,0.00,,,0.00,VWS V14.01,2013-01-12 03:17:00,
2013-01-11 20:22:00,-0.2,-4.9,30.45,NE,53,0.0,0.0,80,0.00,,,0.00,VWS V14.01,2013-01-12 03:22:00,
2013-01-11 20:27:00,-0.2,-5.2,30.45,NE,53,0.0,0.0,79,0.00,,,0.00,VWS V14.01,2013-01-12 03:27:00,
2013-01-11 20:30:00,-0.4,-5.6,30.43,NE,53,0.0,0.0,78,0.00,,,0.00,VWS V14.01,2013-01-12 03:30:00,
2013-01-11 20:32:00,-0.8,-6.3,30.43,NE,53,0.0,0.0,77,0.00,,,0.00,VWS V14.01,2013-01-12 03:32:00,
2013-01-11 20:37:00,-0.4,-5.1,30.43,NNE,23,0.0,0.0,80,0.00,,,0.00,VWS V14.01,2013-01-12 03:37:00,
2013-01-11 20:42:00,-0.2,-5.4,30.43,NNE,23,0.0,0.0,78,0.00,,,0.00,VWS V14.01,2013-01-12 03:42:00,
2013-01-11 20:47:00,-0.4,-5.6,30.43,East,101,0.0,0.0,78,0.00,,,0.00,VWS V14.01,2013-01-12 03:47:00,
2013-01-11 20:52:00,-0.6,-6.1,30.43,East,101,0.0,0.0,77,0.00,,,0.00,VWS V14.01,2013-01-12 03:52:00,
2013-01-11 20:57:00,-1.0,-6.5,30.43,East,101,0.0,0.0,77,0.00,,,0.00,VWS V14.01,2013-01-12 03:57:00,
2013-01-11 21:00:00,-1.0,-6.2,30.44,East,101,0.0,0.0,78,0.00,,,0.00,VWS V14.01,2013-01-12 04:00:00,
2013-01-11 21:02:00,-0.8,-6.0,30.44,East,101,0.0,0.0,78,0.00,,,0.00,VWS V14.01,2013-01-12 04:02:00,
2013-01-11 21:07:00,-1.2,-6.9,30.44,East,101,0.0,0.0,76,0.00,,,0.00,VWS V14.01,2013-01-12 04:07:00,
2013-01-11 21:12:00,-1.4,-6.8,30.44,East,101,0.0,0.0,77,0.00,,,0.00,VWS V14.01,2013-01-12 04:12:00,
2013-01-11 21:17:00,-0.8,-5.7,30.44,East,101,0.0,0.0,79,0.00,,,0.00,VWS V14.01,2013-01-12 04:17:00,
2013-01-11 21:22:00,-0.8,-6.0,30.44,East,101,0.0,0.0,78,0.00,,,0.00,VWS V14.01,2013-01-12 04:22:00,
2013-01-11 21:27:00,-1.0,-6.2,30.44,East,101,0.0,0.0,78,0.00,,,0.00,VWS V14.01,2013-01-12 04:27:00,
2013-01-11 21:30:00,-0.8,-6.0,30.44,East,101,0.0,0.0,78,0.00,,,0.00,VWS V14.01,2013-01-12 04:30:00,
2013-01-11 21:32:00,-0.6,-5.8,30.43,East,101,0.0,0.0,78,0.00,,,0.00,VWS V14.01,2013-01-12 04:32:00,
2013-01-11 21:37:00,-0.8,-6.0,30.43,East,101,0.0,0.0,78,0.00,,,0.00,VWS V14.01,2013-01-12 04:37:00,
2013-01-11 21:42:00,-1.0,-6.5,30.43,East,101,0.0,0.0,77,0.00,,,0.00,VWS V14.01,2013-01-12 04:42:00,
2013-01-11 21:47:00,-1.0,-6.2,30.43,East,101,0.0,0.0,78,0.00,,,0.00,VWS V14.01,2013-01-12 04:47:00,
2013-01-11 21:52:00,-0.8,-6.0,30.43,East,101,0.0,0.0,78,0.00,,,0.00,VWS V14.01,2013-01-12 04:52:00,
2013-01-11 21:57:00,-1.0,-6.2,30.43,East,101,0.0,0.0,78,0.00,,,0.00,VWS V14.01,2013-01-12 04:57:00,
2013-01-11 22:00:00,-1.0,-6.2,30.43,East,101,0.0,0.0,78,0.00,,,0.00,VWS V14.01,2013-01-12 05:00:00,
2013-01-11 22:01:00,-1.0,-6.2,30.43,East,101,0.0,0.0,78,0.00,,,0.00,VWS V14.01,2013-01-12 05:01:00,
2013-01-11 22:02:00,-1.0,-6.2,30.43,East,101,0.0,0.0,78,0.00,,,0.00,VWS V14.01,2013-01-12 05:02:00,
2013-01-11 22:06:00,-0.8,-6.0,30.43,East,101,0.0,0.0,78,0.00,,,0.00,VWS V14.01,2013-01-12 05:06:00,
2013-01-11 22:11:00,-1.0,-6.5,30.43,East,101,0.0,0.0,77,0.00,,,0.00,VWS V14.01,2013-01-12 05:11:00,
2013-01-11 22:16:00,-1.8,-7.8,30.40,East,101,0.0,0.0,75,0.00,,,0.00,VWS V14.01,2013-01-12 05:16:00,
2013-01-11 22:21:00,-2.0,-7.7,30.40,East,101,0.0,0.0,76,0.00,,,0.00,VWS V14.01,2013-01-12 05:21:00,
2013-01-11 22:26:00,-2.2,-8.2,30.40,East,101,0.0,0.0,75,0.00,,,0.00,VWS V14.01,2013-01-12 05:26:00,
2013-01-11 22:30:00,-2.4,-8.1,30.42,East,101,0.0,0.0,76,0.00,,,0.00,VWS V14.01,2013-01-12 05:30:00,
2013-01-11 22:31:00,-2.4,-8.4,30.42,East,101,0.0,0.0,75,0.00,,,0.00,VWS V14.01,2013-01-12 05:31:00,
2013-01-11 22:36:00,-2.8,-8.7,30.42,East,101,0.0,0.0,75,0.00,,,0.00,VWS V14.01,2013-01-12 05:36:00,
2013-01-11 22:41:00,-3.1,-9.0,30.42,East,101,0.0,0.0,75,0.00,,,0.00,VWS V14.01,2013-01-12 05:41:00,
2013-01-11 22:46:00,-3.1,-8.8,30.41,East,101,0.0,0.0,76,0.00,,,0.00,VWS V14.01,2013-01-12 05:46:00,
2013-01-11 22:51:00,-2.6,-8.0,30.41,East,101,0.0,0.0,77,0.00,,,0.00,VWS V14.01,2013-01-12 05:51:00,
2013-01-11 22:56:00,-2.4,-7.8,30.41,East,101,0.0,0.0,77,0.00,,,0.00,VWS V14.01,2013-01-12 05:56:00,
2013-01-11 23:00:00,-2.6,-8.3,30.41,East,101,0.0,0.0,76,0.00,,,0.00,VWS V14.01,2013-01-12 06:00:00,
2013-01-11 23:01:00,-2.8,-8.7,30.41,East,101,0.0,0.0,75,0.00,,,0.00,VWS V14.01,2013-01-12 06:01:00,
2013-01-11 23:06:00,-3.1,-9.0,30.41,East,101,0.0,0.0,75,0.00,,,0.00,VWS V14.01,2013-01-12 06:06:00,
2013-01-11 23:11:00,-3.5,-9.4,30.41,East,101,0.0,0.0,75,0.00,,,0.00,VWS V14.01,2013-01-12 06:11:00,
2013-01-11 23:16:00,-2.6,-7.8,30.38,West,273,0.0,0.0,78,0.00,,,0.00,VWS V14.01,2013-01-12 06:16:00,
2013-01-11 23:21:00,-1.0,-5.7,30.38,West,278,0.0,0.0,80,0.00,,,0.00,VWS V14.01,2013-01-12 06:21:00,
2013-01-11 23:26:00,-0.6,-6.3,30.38,West,278,0.0,0.0,76,0.00,,,0.00,VWS V14.01,2013-01-12 06:26:00,
2013-01-11 23:30:00,-1.0,-7.3,30.37,West,278,0.0,0.0,74,0.00,,,0.00,VWS V14.01,2013-01-12 06:30:00,
2013-01-11 23:31:00,-1.4,-7.7,30.37,West,278,0.0,0.0,74,0.00,,,0.00,VWS V14.01,2013-01-12 06:31:00,
2013-01-11 23:36:00,-1.8,-8.1,30.37,West,278,0.0,0.0,74,0.00,,,0.00,VWS V14.01,2013-01-12 06:36:00,
2013-01-11 23:41:00,-2.2,-8.4,30.37,West,278,0.0,0.0,74,0.00,,,0.00,VWS V14.01,2013-01-12 06:41:00,
2013-01-11 23:46:00,-2.4,-8.1,30.38,West,278,0.0,0.0,76,0.00,,,0.00,VWS V14.01,2013-01-12 06:46:00,
2013-01-11 23:51:00,-2.6,-8.8,30.38,West,278,0.0,0.0,74,0.00,,,0.00,VWS V14.01,2013-01-12 06:51:00,
2013-01-11 23:56:00,-2.8,-8.7,30.38,West,278,0.0,0.0,75,0.00,,,0.00,VWS V14.01,2013-01-12 06:56:00,